Time;durP1;ratioP1;P1;durP2;ratioP2;P2;SDS_P1;SDS_P2;PMS_P1;PMS_P2;Temp;Humidity;BMP_temperature;BMP_pressure;BME280_temperature;BME280_humidity;BME280_pressure;Samples;Min_cycle;Max_cycle;Signal;HPM_P1;HPM_P2
2021/09/15 14:18:48;;;;;;;0.10;0.10;;;;;;;25.41;37.40;99011.25;5027308;27;1774303;-76
2021/09/15 14:21:14;;;;;;;0.63;0.63;;;;;;;25.41;37.17;99008.50;5046779;28;20447;-76
2021/09/15 14:23:40;;;;;;;0.00;0.00;;;;;;;25.43;37.51;99008.94;5028097;28;20060;-76
2021/09/15 14:26:05;;;;;;;0.15;0.15;;;;;;;25.45;37.52;99003.88;5028169;28;20060;-76
2021/09/15 14:28:31;;;;;;;0.32;0.32;;;;;;;25.43;37.45;99000.72;5041557;28;20470;-77
2021/09/15 14:30:56;;;;;;;1.77;0.68;;;;;;;25.49;37.58;99006.66;5047871;28;20037;-76
2021/09/15 14:33:22;;;;;;;0.10;0.10;;;;;;;25.56;37.45;99003.94;5046772;28;20021;-76
2021/09/15 14:35:47;;;;;;;0.55;0.52;;;;;;;25.67;37.04;98993.88;5047106;28;20408;-76
2021/09/15 14:38:13;;;;;;;2.10;1.13;;;;;;;25.77;36.56;98989.66;5047854;28;20024;-76
2021/09/15 14:40:38;;;;;;;0.30;0.30;;;;;;;25.82;36.78;98972.09;5047980;28;20106;-76
2021/09/15 14:43:03;;;;;;;1.08;1.08;;;;;;;25.94;36.59;98980.00;5048106;28;20014;-76
2021/09/15 14:45:29;;;;;;;0.00;0.00;;;;;;;26.01;36.22;98996.47;5033324;28;20030;-75
2021/09/15 14:47:55;;;;;;;0.03;0.03;;;;;;;26.07;36.16;98994.19;5041513;28;20447;-76
2021/09/15 14:50:20;;;;;;;0.17;0.17;;;;;;;26.11;35.98;98992.25;5046597;28;20048;-75
2021/09/15 14:52:46;;;;;;;0.55;0.55;;;;;;;26.14;36.02;98996.97;5037218;28;20365;-75
2021/09/15 14:55:11;;;;;;;0.43;0.43;;;;;;;26.20;35.98;99000.13;5047482;28;20499;-75
2021/09/15 14:57:37;;;;;;;0.70;0.47;;;;;;;26.26;35.63;99008.78;5033445;28;20108;-75
2021/09/15 15:00:04;;;;;;;0.15;0.15;;;;;;;26.27;35.54;99026.78;5027779;28;20030;-75
2021/09/15 15:02:30;;;;;;;0.63;0.63;;;;;;;26.23;35.14;99007.59;5037069;28;20029;-85
2021/09/15 15:04:56;;;;;;;0.20;0.15;;;;;;;26.19;35.62;99012.25;5033834;28;20507;-78
2021/09/15 15:07:21;;;;;;;0.10;0.10;;;;;;;26.17;35.89;99015.41;5026249;28;20021;-75
2021/09/15 15:09:49;;;;;;;0.50;0.20;;;;;;;26.17;35.52;99003.63;5028181;28;20057;-78
2021/09/15 15:12:15;;;;;;;0.63;0.43;;;;;;;26.20;35.87;99006.41;5036976;28;20100;-83
2021/09/15 15:14:43;;;;;;;0.40;0.40;;;;;;;26.23;35.73;99013.06;5044779;28;20128;-78
2021/09/15 15:17:08;;;;;;;0.00;0.00;;;;;;;26.25;36.04;99009.97;5031254;28;20046;-75
2021/09/15 15:19:33;;;;;;;0.22;0.22;;;;;;;26.27;35.84;99007.59;5043952;28;20032;-76
2021/09/15 15:21:59;;;;;;;0.40;0.40;;;;;;;26.26;35.78;99014.28;5045962;28;20028;-75
2021/09/15 15:24:25;;;;;;;0.08;0.08;;;;;;;26.20;35.63;99006.41;5046724;28;20039;-74
2021/09/15 15:26:54;;;;;;;0.50;0.50;;;;;;;26.25;35.70;99020.94;5045372;28;20032;-74
2021/09/15 15:29:20;;;;;;;0.20;0.20;;;;;;;26.21;35.85;99010.72;5020634;28;20029;-75
2021/09/15 15:31:45;;;;;;;0.20;0.10;;;;;;;26.19;35.55;99018.53;5013551;28;20029;-75
2021/09/15 15:34:11;;;;;;;0.00;0.00;;;;;;;26.18;35.33;99025.19;5013950;28;20025;-73
2021/09/15 15:36:36;;;;;;;1.55;0.15;;;;;;;26.16;35.18;99011.06;5013422;28;20021;-73
2021/09/15 15:39:03;;;;;;;0.38;0.38;;;;;;;26.12;35.00;99017.69;5013794;28;20546;-74
2021/09/15 15:41:29;;;;;;;0.30;0.30;;;;;;;26.10;35.25;99015.34;5013776;28;20080;-74
2021/09/15 15:43:57;;;;;;;0.45;0.10;;;;;;;26.07;34.73;99034.50;5013828;28;20022;-73
2021/09/15 15:46:22;;;;;;;;;;;;;;;26.02;35.07;99032.88;5014308;28;20073;-74
2021/09/15 15:48:47;;;;;;;0.10;0.10;;;;;;;25.89;35.24;99026.94;5013690;28;20378;-74
2021/09/15 15:51:13;;;;;;;0.73;0.73;;;;;;;25.91;35.42;99034.75;5013427;28;20021;-74
2021/09/15 15:53:39;;;;;;;0.00;0.00;;;;;;;25.89;35.64;99029.66;5013615;28;20112;-75
2021/09/15 15:56:05;;;;;;;0.40;0.40;;;;;;;25.86;35.73;99036.66;5013529;28;20024;-74
2021/09/15 15:58:30;;;;;;;0.43;0.43;;;;;;;25.82;35.57;99040.56;5013375;28;20033;-75
2021/09/15 16:00:56;;;;;;;0.20;0.20;;;;;;;25.72;35.57;99050.28;5013502;28;20084;-73
2021/09/15 16:03:21;;;;;;;0.00;0.00;;;;;;;25.69;35.84;99048.28;5013436;28;20025;-74
2021/09/15 16:05:47;;;;;;;0.52;0.52;;;;;;;25.61;35.89;99052.09;5012840;28;20021;-74
2021/09/15 16:08:12;;;;;;;0.75;0.55;;;;;;;25.56;36.07;99054.03;5012923;28;20030;-74
2021/09/15 16:10:39;;;;;;;0.32;0.32;;;;;;;25.50;36.38;99057.47;5013053;28;20025;-74
2021/09/15 16:13:04;;;;;;;0.00;0.00;;;;;;;25.44;36.82;99057.06;5013276;28;20484;-74
2021/09/15 16:15:30;;;;;;;0.28;0.28;;;;;;;25.40;37.21;99054.28;5012832;28;20021;-74
2021/09/15 16:17:55;;;;;;;0.50;0.50;;;;;;;25.38;37.41;99055.81;5012901;28;20046;-74
2021/09/15 16:20:21;;;;;;;0.10;0.10;;;;;;;25.35;37.51;99056.53;5011702;28;20026;-74
2021/09/15 16:22:47;;;;;;;0.32;0.32;;;;;;;25.35;37.43;99054.59;5012874;28;20038;-75
2021/09/15 16:25:13;;;;;;;0.25;0.25;;;;;;;25.37;37.66;99062.41;5013107;28;20022;-75
2021/09/15 16:27:39;;;;;;;0.13;0.13;;;;;;;25.31;37.46;99058.44;5012796;28;20457;-75
2021/09/15 16:30:06;;;;;;;0.60;0.60;;;;;;;25.28;37.42;99057.25;5012986;28;20114;-74
2021/09/15 16:32:32;;;;;;;0.07;0.07;;;;;;;25.24;37.63;99059.16;5012767;28;20034;-75
2021/09/15 16:34:57;;;;;;;1.55;0.52;;;;;;;25.19;37.58;99063.00;5012882;28;20030;-75
2021/09/15 16:37:23;;;;;;;0.03;0.03;;;;;;;25.12;37.73;99062.94;5012549;28;20088;-75
2021/09/15 16:39:48;;;;;;;0.40;0.40;;;;;;;25.09;38.06;99067.19;5012168;28;20033;-75
2021/09/15 16:42:14;;;;;;;0.00;0.00;;;;;;;25.07;38.06;99068.72;5012555;28;20534;-74
2021/09/15 16:44:41;;;;;;;0.10;0.10;;;;;;;25.06;38.34;99067.97;5011298;28;20113;-75
2021/09/15 16:47:08;;;;;;;0.00;0.00;;;;;;;25.05;38.41;99066.38;5012746;28;20022;-74
2021/09/15 16:49:33;;;;;;;0.10;0.10;;;;;;;25.07;38.43;99063.25;5012379;28;20112;-74
2021/09/15 16:51:59;;;;;;;0.00;0.00;;;;;;;25.07;38.69;99068.72;5012308;28;20465;-75
2021/09/15 16:54:24;;;;;;;0.28;0.28;;;;;;;25.09;38.82;99075.41;5012166;28;20042;-75
2021/09/15 16:56:49;;;;;;;0.52;0.45;;;;;;;25.08;39.09;99073.06;5012489;28;20083;-74
2021/09/15 16:59:15;;;;;;;0.00;0.00;;;;;;;25.10;38.75;99070.75;5012284;28;20018;-76
2021/09/15 17:01:40;;;;;;;0.00;0.00;;;;;;;25.12;38.87;99079.38;5012172;28;20496;-77
2021/09/15 17:04:06;;;;;;;0.00;0.00;;;;;;;25.09;38.47;99080.09;5013453;28;20026;-78
2021/09/15 17:06:31;;;;;;;0.10;0.10;;;;;;;25.06;38.25;99084.38;5011496;28;20029;-74
2021/09/15 17:08:57;;;;;;;0.00;0.00;;;;;;;25.06;38.46;99083.56;5027387;28;20022;-75
2021/09/15 17:11:22;;;;;;;0.00;0.00;;;;;;;25.05;38.67;99092.97;5022012;28;20024;-76
2021/09/15 17:13:47;;;;;;;0.00;0.00;;;;;;;25.02;38.43;99097.22;5028515;28;20105;-74
2021/09/15 17:16:13;;;;;;;0.00;0.00;;;;;;;25.01;38.68;99097.59;5019202;28;20112;-74
2021/09/15 17:18:38;;;;;;;0.00;0.00;;;;;;;24.93;38.73;99097.50;5026652;28;20041;-74
2021/09/15 17:21:04;;;;;;;0.10;0.10;;;;;;;24.93;38.70;99102.97;5027310;28;20017;-75
2021/09/15 17:23:29;;;;;;;0.10;0.10;;;;;;;24.89;38.80;99102.16;5015042;28;20053;-75
2021/09/15 17:25:55;;;;;;;0.10;0.10;;;;;;;24.88;38.82;99110.72;5016305;28;20029;-75
2021/09/15 17:28:20;;;;;;;0.00;0.00;;;;;;;24.85;38.61;99117.72;5014874;28;20028;-77
2021/09/15 17:30:46;;;;;;;0.22;0.22;;;;;;;24.85;38.77;99108.72;5030322;28;20029;-74
2021/09/15 17:33:12;;;;;;;0.03;0.03;;;;;;;24.76;38.55;99107.03;5027260;28;20025;-74
2021/09/15 17:35:37;;;;;;;0.10;0.10;;;;;;;24.78;38.44;99112.94;5016694;28;20106;-76
2021/09/15 17:38:03;;;;;;;0.10;0.10;;;;;;;24.76;38.15;99122.69;5019207;28;20512;-75
2021/09/15 17:40:29;;;;;;;0.00;0.00;;;;;;;24.72;38.37;99117.16;5011687;28;20021;-73
2021/09/15 17:42:54;;;;;;;0.00;0.00;;;;;;;24.68;38.64;99115.53;5010800;28;20022;-76
2021/09/15 17:45:20;;;;;;;0.00;0.00;;;;;;;24.64;38.38;99111.94;5031124;28;20021;-76
2021/09/15 17:47:46;;;;;;;0.10;0.10;;;;;;;24.64;38.65;99128.34;5030676;28;20060;-73
2021/09/15 17:50:12;;;;;;;0.08;0.08;;;;;;;24.62;38.47;99123.25;5022678;28;20084;-78
2021/09/15 17:52:37;;;;;;;0.10;0.10;;;;;;;24.59;38.69;99126.72;5021485;28;20033;-74
2021/09/15 17:55:04;;;;;;;0.05;0.05;;;;;;;24.58;38.80;99130.59;5011754;28;20105;-76
2021/09/15 17:57:29;;;;;;;0.03;0.03;;;;;;;24.57;38.86;99140.75;5016990;28;20053;-75
2021/09/15 17:59:55;;;;;;;0.08;0.08;;;;;;;24.53;38.91;99128.97;5019654;28;20461;-75
2021/09/15 18:02:20;;;;;;;0.10;0.10;;;;;;;24.55;38.94;99129.38;5024957;28;20516;-76
2021/09/15 18:04:45;;;;;;;0.00;0.00;;;;;;;24.52;38.62;99129.34;5029347;28;20021;-76
2021/09/15 18:07:11;;;;;;;0.10;0.10;;;;;;;24.54;38.70;99130.53;5016934;28;20026;-77
2021/09/15 18:09:38;;;;;;;0.08;0.08;;;;;;;24.51;38.99;99136.75;5011540;28;20026;-76
2021/09/15 18:12:04;;;;;;;0.10;0.10;;;;;;;24.47;39.20;99130.44;5023389;28;20489;-77
2021/09/15 18:14:29;;;;;;;0.10;0.10;;;;;;;24.48;40.12;99131.25;5028104;28;20097;-76
2021/09/15 18:16:55;;;;;;;0.00;0.00;;;;;;;24.45;40.58;99136.28;5023374;28;20099;-77
2021/09/15 18:19:20;;;;;;;0.10;0.10;;;;;;;24.46;40.45;99139.78;5029631;28;20032;-75
2021/09/15 18:21:46;;;;;;;0.10;0.10;;;;;;;24.44;39.83;99140.16;5030365;28;20025;-77
2021/09/15 18:24:11;;;;;;;0.10;0.10;;;;;;;24.42;40.73;99147.94;5017724;28;20037;-75
2021/09/15 18:26:37;;;;;;;0.00;0.00;;;;;;;24.37;40.70;99142.78;5013061;28;20124;-76
2021/09/15 18:29:03;;;;;;;0.10;0.10;;;;;;;24.35;41.70;99138.84;5021734;28;20087;-76
2021/09/15 18:31:29;;;;;;;0.08;0.08;;;;;;;24.31;42.04;99141.50;5009684;28;20041;-76
2021/09/15 18:33:54;;;;;;;0.00;0.00;;;;;;;24.25;41.81;99137.50;5009947;28;20022;-76
2021/09/15 18:36:21;;;;;;;0.08;0.08;;;;;;;24.17;42.75;99131.16;5015473;28;20082;-75
2021/09/15 18:38:47;;;;;;;0.10;0.10;;;;;;;24.17;42.50;99141.28;5019165;28;20026;-77
2021/09/15 18:41:13;;;;;;;0.00;0.00;;;;;;;24.07;42.34;99132.56;5030206;28;20033;-78
2021/09/15 18:43:38;;;;;;;0.10;0.10;;;;;;;24.04;42.64;99138.72;5009911;28;20026;-76
2021/09/15 18:46:04;;;;;;;0.10;0.10;;;;;;;23.95;43.41;99138.22;5010604;28;20025;-77
2021/09/15 18:48:29;;;;;;;0.10;0.10;;;;;;;23.92;43.59;99142.44;5020264;28;20136;-74
2021/09/15 18:50:57;;;;;;;0.10;0.10;;;;;;;23.86;43.71;99143.06;5012347;28;20033;-74
2021/09/15 18:53:24;;;;;;;0.03;0.03;;;;;;;23.83;43.26;99145.38;5014438;28;20021;-74
2021/09/15 18:55:50;;;;;;;0.00;0.00;;;;;;;23.76;43.42;99145.25;5010198;28;20489;-74
2021/09/15 18:58:15;;;;;;;0.00;0.00;;;;;;;23.73;43.07;99145.19;5010409;28;20374;-76
2021/09/15 19:00:41;;;;;;;0.30;0.30;;;;;;;23.69;43.41;99141.59;5014927;28;20097;-75
2021/09/15 19:03:07;;;;;;;0.10;0.10;;;;;;;23.64;43.57;99139.94;5024424;28;20083;-75
2021/09/15 19:05:33;;;;;;;0.00;0.00;;;;;;;23.58;43.18;99146.84;5027009;28;20495;-75
2021/09/15 19:07:59;;;;;;;0.10;0.10;;;;;;;23.52;43.09;99143.63;5031682;28;21636;-75
2021/09/15 19:10:25;;;;;;;0.10;0.10;;;;;;;23.48;43.52;99138.09;5030695;28;20040;-75
2021/09/15 19:12:53;;;;;;;0.00;0.00;;;;;;;23.42;43.58;99145.00;5016956;28;20034;-73
2021/09/15 19:15:20;;;;;;;0.10;0.10;;;;;;;23.31;43.74;99142.09;5013418;28;20028;-76
2021/09/15 19:17:46;;;;;;;0.10;0.10;;;;;;;23.26;42.92;99145.06;5021428;28;20041;-73
2021/09/15 19:20:14;;;;;;;0.10;0.10;;;;;;;23.20;43.60;99141.06;5025518;28;20404;-74
2021/09/15 19:22:39;;;;;;;0.10;0.10;;;;;;;23.15;44.58;99133.13;5032943;28;20036;-74
2021/09/15 19:25:05;;;;;;;0.10;0.10;;;;;;;23.09;44.47;99132.63;5014012;28;20034;-74
2021/09/15 19:27:31;;;;;;;0.08;0.08;;;;;;;23.08;43.88;99138.44;5022619;28;20029;-74
2021/09/15 19:29:57;;;;;;;0.10;0.10;;;;;;;23.05;45.00;99145.41;5032385;28;20060;-74
2021/09/15 19:32:22;;;;;;;0.10;0.10;;;;;;;22.96;44.95;99131.97;5031138;28;20053;-76
2021/09/15 19:34:47;;;;;;;0.00;0.00;;;;;;;22.96;44.97;99142.88;5013024;28;20442;-73
2021/09/15 19:37:13;;;;;;;0.10;0.10;;;;;;;22.95;45.15;99135.03;5013416;28;20052;-74
2021/09/15 19:39:39;;;;;;;0.10;0.10;;;;;;;22.91;45.45;99131.47;5026881;28;20087;-74
2021/09/15 19:42:05;;;;;;;0.00;0.00;;;;;;;22.86;45.50;99137.97;5031750;28;20600;-76
2021/09/15 19:44:30;;;;;;;0.10;0.10;;;;;;;22.83;45.11;99139.47;5032787;28;20029;-74
2021/09/15 19:46:56;;;;;;;0.00;0.00;;;;;;;22.78;44.82;99134.31;5020936;28;20109;-74
2021/09/15 19:49:21;;;;;;;0.10;0.10;;;;;;;22.77;45.51;99140.13;5013083;28;20401;-75
2021/09/15 19:51:47;;;;;;;0.10;0.10;;;;;;;22.71;45.95;99134.94;5021739;28;20032;-75
2021/09/15 19:54:13;;;;;;;0.10;0.10;;;;;;;22.66;44.70;99137.16;5014661;28;20534;-75
2021/09/15 19:56:40;;;;;;;0.10;0.10;;;;;;;22.57;44.97;99136.56;5012131;28;20021;-75
2021/09/15 19:59:06;;;;;;;0.00;0.00;;;;;;;22.53;45.71;99144.66;5012756;28;20388;-74
2021/09/15 20:01:31;;;;;;;0.00;0.00;;;;;;;22.50;46.44;99137.19;5012419;28;20022;-75
2021/09/15 20:03:57;;;;;;;0.00;0.00;;;;;;;22.49;46.58;99141.84;5014651;28;20022;-78
2021/09/15 20:06:24;;;;;;;0.10;0.10;;;;;;;22.46;46.35;99133.56;5019442;28;20057;-77
2021/09/15 20:08:49;;;;;;;0.10;0.10;;;;;;;22.48;46.78;99142.19;5031790;28;20025;-78
2021/09/15 20:11:15;;;;;;;0.10;0.10;;;;;;;22.45;47.49;99137.44;5031146;28;20491;-75
2021/09/15 20:13:42;;;;;;;0.10;0.10;;;;;;;22.43;47.13;99132.34;5032189;28;20021;-75
2021/09/15 20:16:09;;;;;;;0.10;0.10;;;;;;;22.41;46.34;99142.84;5031692;28;20075;-76
2021/09/15 20:18:34;;;;;;;0.10;0.10;;;;;;;22.38;47.00;99136.13;5030268;28;20120;-76
2021/09/15 20:21:00;;;;;;;0.10;0.10;;;;;;;22.38;47.59;99144.31;5017095;28;20061;-75
2021/09/15 20:23:27;;;;;;;0.10;0.10;;;;;;;22.37;47.67;99145.44;5010708;28;20575;-76
2021/09/15 20:25:55;;;;;;;0.10;0.10;;;;;;;22.32;46.96;99137.50;5011932;28;20034;-77
2021/09/15 20:28:23;;;;;;;0.10;0.10;;;;;;;22.30;47.02;99144.47;5012510;28;20034;-77
2021/09/15 20:30:49;;;;;;;0.10;0.10;;;;;;;22.29;47.25;99143.69;5011133;28;20026;-77
2021/09/15 20:33:14;;;;;;;0.10;0.10;;;;;;;22.27;47.82;99148.69;5010607;28;20117;-75
2021/09/15 20:35:40;;;;;;;0.17;0.17;;;;;;;22.25;47.36;99147.47;5013827;28;20108;-76
2021/09/15 20:38:05;;;;;;;0.10;0.10;;;;;;;22.21;47.73;99155.53;5020284;28;20041;-76
2021/09/15 20:40:31;;;;;;;0.10;0.10;;;;;;;22.17;47.95;99152.72;5012754;28;20029;-77
2021/09/15 20:42:57;;;;;;;0.10;0.10;;;;;;;22.14;47.25;99139.81;5027043;28;20034;-78
2021/09/15 20:45:25;;;;;;;0.10;0.10;;;;;;;22.15;47.41;99146.84;5023349;28;20021;-77
2021/09/15 20:47:51;;;;;;;0.10;0.10;;;;;;;22.14;47.41;99136.28;5012153;28;20076;-77
2021/09/15 20:50:16;;;;;;;0.10;0.10;;;;;;;22.12;46.91;99144.81;5012085;28;20053;-76
2021/09/15 20:52:42;;;;;;;0.10;0.10;;;;;;;22.10;46.82;99138.94;5011770;28;20024;-76
2021/09/15 20:55:08;;;;;;;0.10;0.10;;;;;;;22.07;46.77;99143.16;5027471;28;20448;-77
2021/09/15 20:57:34;;;;;;;0.10;0.10;;;;;;;22.05;46.79;99144.66;5030415;28;20025;-76
2021/09/15 20:59:59;;;;;;;0.10;0.10;;;;;;;22.02;46.92;99143.41;5029556;28;20033;-77
2021/09/15 21:02:25;;;;;;;0.10;0.10;;;;;;;21.96;47.04;99139.38;5031954;28;20026;-77
2021/09/15 21:04:50;;;;;;;0.10;0.10;;;;;;;21.97;47.36;99151.03;5029816;28;20048;-76
2021/09/15 21:07:15;;;;;;;0.10;0.10;;;;;;;21.95;47.24;99139.69;5011845;28;20026;-77
2021/09/15 21:09:42;;;;;;;0.00;0.00;;;;;;;21.95;47.61;99148.69;5010493;28;20510;-77
2021/09/15 21:12:09;;;;;;;0.00;0.00;;;;;;;21.90;47.97;99140.78;5020155;28;20037;-77
2021/09/15 21:14:35;;;;;;;0.00;0.00;;;;;;;21.92;48.24;99146.66;5027950;28;20021;-77
2021/09/15 21:17:01;;;;;;;0.10;0.10;;;;;;;21.90;48.42;99146.22;5009743;28;20093;-76
2021/09/15 21:19:27;;;;;;;0.10;0.10;;;;;;;21.89;48.59;99148.13;5011543;28;20073;-76
2021/09/15 21:21:53;;;;;;;0.10;0.10;;;;;;;21.87;48.60;99150.44;5010997;28;20021;-76
2021/09/15 21:24:19;;;;;;;0.10;0.10;;;;;;;21.83;47.99;99149.53;5011974;28;20022;-76
2021/09/15 21:26:44;;;;;;;0.10;0.10;;;;;;;21.81;47.71;99145.59;5011339;28;20404;-76
2021/09/15 21:29:11;;;;;;;0.10;0.10;;;;;;;21.80;48.64;99149.44;5011118;28;20022;-77
2021/09/15 21:31:36;;;;;;;0.08;0.08;;;;;;;21.75;48.66;99145.03;5011311;28;20030;-76
2021/09/15 21:34:02;;;;;;;0.10;0.10;;;;;;;21.69;48.85;99136.34;5010940;28;20022;-76
2021/09/15 21:36:27;;;;;;;0.00;0.00;;;;;;;21.71;49.39;99141.44;5011015;28;20053;-76
2021/09/15 21:38:53;;;;;;;0.10;0.10;;;;;;;21.67;49.14;99149.50;5010124;28;20032;-76
2021/09/15 21:41:19;;;;;;;0.00;0.00;;;;;;;21.59;49.38;99148.53;5011599;28;20088;-76
2021/09/15 21:43:44;;;;;;;0.10;0.10;;;;;;;21.55;49.72;99135.94;5010350;28;20045;-75
2021/09/15 21:46:10;;;;;;;0.10;0.10;;;;;;;21.50;49.51;99139.69;5011420;28;20038;-76
2021/09/15 21:48:38;;;;;;;0.10;0.10;;;;;;;21.49;49.91;99146.28;5010864;28;20030;-75
2021/09/15 21:51:04;;;;;;;0.10;0.10;;;;;;;21.47;50.33;99147.75;5012634;28;20041;-75
2021/09/15 21:53:30;;;;;;;0.10;0.10;;;;;;;21.43;50.42;99143.03;5024641;28;20463;-75
2021/09/15 21:55:56;;;;;;;0.05;0.05;;;;;;;21.40;50.40;99145.66;5029853;28;20125;-75
2021/09/15 21:58:22;;;;;;;0.00;0.00;;;;;;;21.37;50.56;99132.72;5029704;28;20527;-75
2021/09/15 22:00:51;;;;;;;0.10;0.10;;;;;;;21.31;50.61;99123.22;5027363;28;20066;-75
2021/09/15 22:03:17;;;;;;;0.05;0.05;;;;;;;21.32;50.57;99130.25;5030568;28;20041;-75
2021/09/15 22:05:44;;;;;;;0.03;0.03;;;;;;;21.28;50.48;99133.66;5023178;28;20030;-75
2021/09/15 22:08:10;;;;;;;0.10;0.10;;;;;;;21.21;50.26;99121.78;5010838;28;20022;-76
2021/09/15 22:10:38;;;;;;;0.10;0.10;;;;;;;21.16;50.17;99128.25;5010487;28;20102;-75
2021/09/15 22:13:05;;;;;;;0.10;0.10;;;;;;;21.06;50.54;99134.19;5017570;28;20037;-76
2021/09/15 22:15:30;;;;;;;0.10;0.10;;;;;;;21.01;50.17;99135.22;5027954;28;20038;-74
2021/09/15 22:17:57;;;;;;;0.10;0.10;;;;;;;20.98;50.19;99137.84;5030037;28;20052;-78
2021/09/15 22:20:23;;;;;;;0.10;0.10;;;;;;;20.94;50.64;99132.28;5030196;28;20033;-76
2021/09/15 22:22:48;;;;;;;0.10;0.10;;;;;;;20.90;50.56;99137.63;5030119;28;20029;-76
2021/09/15 22:25:14;;;;;;;0.10;0.10;;;;;;;20.83;50.92;99123.81;5030576;28;20024;-75
2021/09/15 22:27:42;;;;;;;0.20;0.20;;;;;;;20.80;50.66;99129.94;5030096;28;20033;-76
2021/09/15 22:30:09;;;;;;;0.10;0.10;;;;;;;20.76;50.73;99126.31;5028380;28;20470;-75
2021/09/15 22:32:35;;;;;;;0.10;0.10;;;;;;;20.72;50.57;99126.22;5030091;28;20397;-77
2021/09/15 22:35:01;;;;;;;0.40;0.20;;;;;;;20.73;50.64;99125.09;5028553;28;20029;-77
2021/09/15 22:37:26;;;;;;;0.10;0.10;;;;;;;20.72;50.83;99139.78;5028978;28;20036;-77
2021/09/15 22:39:52;;;;;;;0.10;0.10;;;;;;;20.72;51.45;99139.03;5032760;28;20018;-77
2021/09/15 22:42:17;;;;;;;0.10;0.10;;;;;;;20.71;51.20;99137.41;5033987;28;20033;-77
2021/09/15 22:44:43;;;;;;;0.10;0.10;;;;;;;20.71;50.90;99134.69;5032168;28;20071;-78
2021/09/15 22:47:09;;;;;;;0.13;0.13;;;;;;;20.72;51.75;99139.78;5032724;28;20208;-77
2021/09/15 22:49:35;;;;;;;0.10;0.10;;;;;;;20.71;51.31;99137.41;5034445;28;20091;-79
2021/09/15 22:52:00;;;;;;;0.10;0.10;;;;;;;20.71;51.86;99143.63;5031867;28;20025;-79
2021/09/15 22:54:26;;;;;;;0.00;0.00;;;;;;;20.72;52.10;99139.03;5032218;28;20461;-78
2021/09/15 22:56:51;;;;;;;0.10;0.10;;;;;;;20.71;52.06;99143.63;5031689;28;20096;-76
2021/09/15 22:59:16;;;;;;;0.10;0.10;;;;;;;20.70;52.08;99138.53;5033778;28;20029;-76
2021/09/15 23:01:42;;;;;;;0.28;0.28;;;;;;;20.68;52.30;99147.03;5012819;28;20058;-76
2021/09/15 23:04:07;;;;;;;0.10;0.10;;;;;;;20.65;51.77;99134.13;5014108;28;20113;-78
2021/09/15 23:06:33;;;;;;;0.10;0.10;;;;;;;20.62;51.89;99148.41;5012729;28;20473;-77
2021/09/15 23:08:58;;;;;;;0.08;0.08;;;;;;;20.58;52.91;99140.13;5012373;28;20404;-77
2021/09/15 23:11:24;;;;;;;0.10;0.10;;;;;;;20.53;53.26;99137.66;5013104;28;20030;-77
2021/09/15 23:13:49;;;;;;;0.10;0.10;;;;;;;20.51;52.76;99144.53;5013907;28;20033;-77
2021/09/15 23:16:14;;;;;;;0.10;0.10;;;;;;;20.50;52.81;99153.84;5013648;28;20401;-76
2021/09/15 23:18:45;;;;;;;0.10;0.10;;;;;;;20.47;52.87;99152.59;5013660;28;20037;-77
2021/09/15 23:21:11;;;;;;;0.03;0.03;;;;;;;20.44;52.48;99150.53;5013058;28;20109;-76
2021/09/15 23:23:36;;;;;;;0.00;0.00;;;;;;;20.43;52.39;99155.19;5013367;28;20108;-72
2021/09/15 23:26:02;;;;;;;0.10;0.10;;;;;;;20.43;52.40;99163.34;5013919;28;20449;-77
2021/09/15 23:28:27;;;;;;;0.10;0.10;;;;;;;20.41;52.21;99159.34;5013828;28;20021;-77
2021/09/15 23:30:53;;;;;;;0.00;0.00;;;;;;;20.40;52.05;99160.50;5014082;28;20022;-80
2021/09/15 23:33:18;;;;;;;0.10;0.10;;;;;;;20.39;52.01;99167.06;5014540;28;20096;-77
2021/09/15 23:35:45;;;;;;;0.05;0.05;;;;;;;20.35;51.94;99166.16;5014707;28;20037;-79
2021/09/15 23:38:11;;;;;;;0.10;0.10;;;;;;;20.31;51.66;99164.13;5014130;28;20022;-79
2021/09/15 23:40:36;;;;;;;0.10;0.10;;;;;;;20.27;51.55;99165.91;5013052;28;20026;-78
2021/09/15 23:43:02;;;;;;;0.00;0.00;;;;;;;20.22;51.46;99157.22;5012654;28;20029;-78
2021/09/15 23:45:27;;;;;;;0.00;0.00;;;;;;;20.12;51.51;99163.88;5020796;28;20025;-78
2021/09/15 23:47:52;;;;;;;0.00;0.00;;;;;;;20.05;51.58;99163.63;5033401;28;20460;-78
2021/09/15 23:50:18;;;;;;;0.10;0.10;;;;;;;19.97;51.83;99165.31;5033270;28;20461;-77
2021/09/15 23:52:43;;;;;;;0.10;0.10;;;;;;;19.93;52.06;99167.91;5033891;28;20029;-78
2021/09/15 23:55:11;;;;;;;0.10;0.10;;;;;;;19.88;52.38;99170.81;5032077;28;20455;-78
2021/09/15 23:57:36;;;;;;;1.50;0.28;;;;;;;19.84;52.54;99162.56;5033662;28;20033;-76
